Hostile Method-08 — HM-08 — position and weather

sailwx.info

Track history (hours):
 
Tides and Currents Weather Stations Pressure Air Temp Water Temp Dewpoint Dewpoint Depression Visibility Wind Speed Wind Dir Waves Ship Positions

Hostile Method-08

Last reported at 2017-Dec-13 02:34 UTC. Time now 2017-Dec-17 10:17 UTC.
Position N 34°09' W 119°13'.

Length 26 m; draft 1.6 m.

Type: Towing. MMSI: 369970279.

Date/timePositionNaut miles runAvg speedWind from/ knotsBaromVisibWave heightAir tempDewpointWater temp
2017-Dec-13 02:34N 34°09' W 119°13'0 0.0
2017-Dec-13 02:28N 34°09' W 119°13'0 0.5
2017-Dec-13 01:57N 34°09' W 119°13'612.8
2017-Dec-13 01:29N 34°03' W 119°15'714.8
2017-Dec-13 01:00N 33°57' W 119°19'714.6
2017-Dec-13 00:30N 33°50' W 119°22'714.6
2017-Dec-13 00:00N 33°43' W 119°25'714.8
2017-Dec-12 23:30N 33°36' W 119°28'815.1
2017-Dec-12 22:59N 33°29' W 119°32'6 7.9
2017-Dec-12 22:13N 33°24' W 119°34'313.9
2017-Dec-12 22:00N 33°21' W 119°33'3 5.1
2017-Dec-12 21:30N 33°18' W 119°32'0 0.4
2017-Dec-12 21:00N 33°18' W 119°32'0 0.3
2017-Dec-12 20:30N 33°18' W 119°32'0 0.3
2017-Dec-12 20:00N 33°18' W 119°32'0 0.3
2017-Dec-12 19:23N 33°18' W 119°32'1 1.1
2017-Dec-12 18:53N 33°18' W 119°32'0 0.3
2017-Dec-12 18:27N 33°18' W 119°32'0 0.2
2017-Dec-12 18:00N 33°18' W 119°32'0 0.2
2017-Dec-12 17:30N 33°18' W 119°32'2 2.8
2017-Dec-12 16:46N 33°20' W 119°32'1 2.8
2017-Dec-12 16:23N 33°21' W 119°31'510.6
2017-Dec-12 15:55N 33°26' W 119°32'1 1.7
2017-Dec-12 15:11N 33°27' W 119°31'2 2.9
2017-Dec-12 14:30N 33°25' W 119°33'3 6.3
2017-Dec-12 14:00N 33°28' W 119°32'510.0
2017-Dec-12 13:30N 33°33' W 119°30'611.1
2017-Dec-12 13:00N 33°38' W 119°28'611.7
2017-Dec-12 12:30N 33°44' W 119°26'611.6
2017-Dec-12 11:57N 33°50' W 119°24'511.5
2017-Dec-12 11:28N 33°55' W 119°22'611.6
2017-Dec-12 11:00N 34°01' W 119°19'611.7
2017-Dec-12 10:30N 34°06' W 119°16'5 9.0
2017-Dec-12 09:59N 34°09' W 119°13'  
2017-Dec-08 21:27N 34°09' W 119°13'613.0
2017-Dec-08 21:00N 34°03' W 119°13'815.7
2017-Dec-08 20:30N 33°56' W 119°14'815.6
2017-Dec-08 20:00N 33°48' W 119°15'611.6
2017-Dec-08 19:30N 33°42' W 119°14'714.4
2017-Dec-08 19:01N 33°36' W 119°10'1 1.6
2017-Dec-08 18:31N 33°37' W 119°10'0 0.6
2017-Dec-08 18:01N 33°37' W 119°10'0 0.6
2017-Dec-08 17:31N 33°36' W 119°09'0 0.4
2017-Dec-08 17:00N 33°36' W 119°09'2 3.0
2017-Dec-08 16:30N 33°38' W 119°09'610.8
2017-Dec-08 15:57N 33°38' W 119°16'0 0.2
2017-Dec-08 15:28N 33°38' W 119°16'1 0.8
2017-Dec-08 14:46N 33°38' W 119°16'1 3.5
2017-Dec-08 14:30N 33°38' W 119°17'2 3.3
2017-Dec-08 14:00N 33°37' W 119°15'2 3.8
2017-Dec-08 13:30N 33°37' W 119°13'4 7.6
2017-Dec-08 12:58N 33°39' W 119°18'4 8.5
2017-Dec-08 12:30N 33°43' W 119°18'4 8.6
2017-Dec-08 12:01N 33°48' W 119°18'4 8.7
2017-Dec-08 11:30N 33°52' W 119°17'4 8.7
2017-Dec-08 11:00N 33°56' W 119°17'5 8.8
2017-Dec-08 10:28N 34°01' W 119°16'5 8.8
2017-Dec-08 09:57N 34°05' W 119°14'4 8.2
2017-Dec-08 09:30N 34°09' W 119°13'  
2017-Dec-03 06:21N 34°09' W 119°13'0 0.0
2017-Dec-03 06:00N 34°09' W 119°13'0 0.0
2017-Dec-03 05:29N 34°09' W 119°13'0 0.0
2017-Dec-03 05:00N 34°09' W 119°13'0 0.0
2017-Dec-03 04:29N 34°09' W 119°13'0 0.0
2017-Dec-03 04:00N 34°09' W 119°13'0 0.0
2017-Dec-03 03:29N 34°09' W 119°13'0 0.0
2017-Dec-03 03:00N 34°09' W 119°13'  
Track history (hours):
 
Tides and Currents Weather Stations Pressure Air Temp Water Temp Dewpoint Dewpoint Depression Visibility Wind Speed Wind Dir Waves Ship Positions

Hostile Method-08

Last reported at 2017-Dec-13 02:34 UTC. Time now 2017-Dec-17 10:17 UTC.
Position N 34°09' W 119°13'.

Length 26 m; draft 1.6 m.

Type: Towing. MMSI: 369970279.

Date/timePositionNaut miles runAvg speedWind from/ knotsBaromVisibWave heightAir tempDewpointWater temp
2017-Dec-13 02:34N 34°09' W 119°13'0 0.0
2017-Dec-13 02:28N 34°09' W 119°13'0 0.5
2017-Dec-13 01:57N 34°09' W 119°13'612.8
2017-Dec-13 01:29N 34°03' W 119°15'714.8
2017-Dec-13 01:00N 33°57' W 119°19'714.6
2017-Dec-13 00:30N 33°50' W 119°22'714.6
2017-Dec-13 00:00N 33°43' W 119°25'714.8
2017-Dec-12 23:30N 33°36' W 119°28'815.1
2017-Dec-12 22:59N 33°29' W 119°32'6 7.9
2017-Dec-12 22:13N 33°24' W 119°34'313.9
2017-Dec-12 22:00N 33°21' W 119°33'3 5.1
2017-Dec-12 21:30N 33°18' W 119°32'0 0.4
2017-Dec-12 21:00N 33°18' W 119°32'0 0.3
2017-Dec-12 20:30N 33°18' W 119°32'0 0.3
2017-Dec-12 20:00N 33°18' W 119°32'0 0.3
2017-Dec-12 19:23N 33°18' W 119°32'1 1.1
2017-Dec-12 18:53N 33°18' W 119°32'0 0.3
2017-Dec-12 18:27N 33°18' W 119°32'0 0.2
2017-Dec-12 18:00N 33°18' W 119°32'0 0.2
2017-Dec-12 17:30N 33°18' W 119°32'2 2.8
2017-Dec-12 16:46N 33°20' W 119°32'1 2.8
2017-Dec-12 16:23N 33°21' W 119°31'510.6
2017-Dec-12 15:55N 33°26' W 119°32'1 1.7
2017-Dec-12 15:11N 33°27' W 119°31'2 2.9
2017-Dec-12 14:30N 33°25' W 119°33'3 6.3
2017-Dec-12 14:00N 33°28' W 119°32'510.0
2017-Dec-12 13:30N 33°33' W 119°30'611.1
2017-Dec-12 13:00N 33°38' W 119°28'611.7
2017-Dec-12 12:30N 33°44' W 119°26'611.6
2017-Dec-12 11:57N 33°50' W 119°24'511.5
2017-Dec-12 11:28N 33°55' W 119°22'611.6
2017-Dec-12 11:00N 34°01' W 119°19'611.7
2017-Dec-12 10:30N 34°06' W 119°16'5 9.0
2017-Dec-12 09:59N 34°09' W 119°13'  
2017-Dec-08 21:27N 34°09' W 119°13'613.0
2017-Dec-08 21:00N 34°03' W 119°13'815.7
2017-Dec-08 20:30N 33°56' W 119°14'815.6
2017-Dec-08 20:00N 33°48' W 119°15'611.6
2017-Dec-08 19:30N 33°42' W 119°14'714.4
2017-Dec-08 19:01N 33°36' W 119°10'1 1.6
2017-Dec-08 18:31N 33°37' W 119°10'0 0.6
2017-Dec-08 18:01N 33°37' W 119°10'0 0.6
2017-Dec-08 17:31N 33°36' W 119°09'0 0.4
2017-Dec-08 17:00N 33°36' W 119°09'2 3.0
2017-Dec-08 16:30N 33°38' W 119°09'610.8
2017-Dec-08 15:57N 33°38' W 119°16'0 0.2
2017-Dec-08 15:28N 33°38' W 119°16'1 0.8
2017-Dec-08 14:46N 33°38' W 119°16'1 3.5
2017-Dec-08 14:30N 33°38' W 119°17'2 3.3
2017-Dec-08 14:00N 33°37' W 119°15'2 3.8
2017-Dec-08 13:30N 33°37' W 119°13'4 7.6
2017-Dec-08 12:58N 33°39' W 119°18'4 8.5
2017-Dec-08 12:30N 33°43' W 119°18'4 8.6
2017-Dec-08 12:01N 33°48' W 119°18'4 8.7
2017-Dec-08 11:30N 33°52' W 119°17'4 8.7
2017-Dec-08 11:00N 33°56' W 119°17'5 8.8
2017-Dec-08 10:28N 34°01' W 119°16'5 8.8
2017-Dec-08 09:57N 34°05' W 119°14'4 8.2
2017-Dec-08 09:30N 34°09' W 119°13'  
2017-Dec-03 06:21N 34°09' W 119°13'0 0.0
2017-Dec-03 06:00N 34°09' W 119°13'0 0.0
2017-Dec-03 05:29N 34°09' W 119°13'0 0.0
2017-Dec-03 05:00N 34°09' W 119°13'0 0.0
2017-Dec-03 04:29N 34°09' W 119°13'0 0.0
2017-Dec-03 04:00N 34°09' W 119°13'0 0.0
2017-Dec-03 03:29N 34°09' W 119°13'0 0.0
2017-Dec-03 03:00N 34°09' W 119°13'  

Dump ship's entire track history